createdAt,value
2019-02-23T00:01:00.409Z,13.28
2019-02-23T00:03:29.799Z,13.10
2019-02-23T00:05:58.568Z,12.35
2019-02-23T00:08:27.743Z,13.60
2019-02-23T00:10:56.807Z,12.13
2019-02-23T00:13:26.236Z,12.78
2019-02-23T00:15:55.442Z,12.35
2019-02-23T00:18:24.232Z,12.10
2019-02-23T00:20:53.634Z,12.20
2019-02-23T00:23:22.395Z,12.00
2019-02-23T00:25:51.466Z,12.63
2019-02-23T00:28:20.728Z,12.57
2019-02-23T00:30:49.487Z,13.00
2019-02-23T00:33:18.235Z,12.90
2019-02-23T00:35:47.009Z,12.70
2019-02-23T00:38:15.781Z,13.30
2019-02-23T00:40:44.951Z,12.68
2019-02-23T00:43:13.767Z,12.80
2019-02-23T00:45:42.593Z,13.00
2019-02-23T00:48:11.786Z,12.68
2019-02-23T00:50:41.177Z,12.68
2019-02-23T00:53:10.128Z,12.95
2019-02-23T00:55:39.116Z,13.10
2019-02-23T00:58:07.900Z,13.50
2019-02-23T01:00:36.747Z,12.93
2019-02-23T01:03:05.522Z,12.63
2019-02-23T01:05:34.440Z,12.60
2019-02-23T01:08:03.351Z,13.00
2019-02-23T01:10:32.088Z,13.43
2019-02-23T01:13:01.140Z,13.68
2019-02-23T01:15:29.990Z,13.77
2019-02-23T01:17:59.117Z,13.80
2019-02-23T01:20:27.989Z,13.38
2019-02-23T01:22:57.100Z,13.88
2019-02-23T01:25:25.875Z,13.53
2019-02-23T01:27:54.633Z,14.15
2019-02-23T01:30:23.444Z,14.20
2019-02-23T01:32:52.214Z,14.00
2019-02-23T01:35:21.353Z,14.13
2019-02-23T01:37:50.164Z,14.43
2019-02-23T01:40:19.076Z,13.35
2019-02-23T01:42:47.852Z,14.78
2019-02-23T01:45:16.595Z,13.90
2019-02-23T01:47:45.531Z,13.90
2019-02-23T01:50:14.356Z,14.28
2019-02-23T01:52:43.172Z,13.72
2019-02-23T01:55:12.537Z,13.68
2019-02-23T01:57:41.304Z,13.70
2019-02-23T02:00:12.844Z,13.62
2019-02-23T02:02:41.908Z,14.47
2019-02-23T02:05:10.939Z,14.05
2019-02-23T02:07:39.819Z,14.65
2019-02-23T02:10:10.656Z,14.15
2019-02-23T02:12:39.991Z,14.50
2019-02-23T02:15:11.274Z,14.67
2019-02-23T02:17:40.385Z,14.18
2019-02-23T02:20:11.437Z,14.23
2019-02-23T02:22:40.649Z,14.07
2019-02-23T02:25:09.650Z,14.47
2019-02-23T02:27:38.418Z,14.18
2019-02-23T02:30:08.853Z,14.10
2019-02-23T02:32:38.315Z,14.47
2019-02-23T02:35:08.371Z,13.58
2019-02-23T02:37:37.578Z,14.47
2019-02-23T02:40:07.156Z,14.10
2019-02-23T02:42:35.925Z,14.58
2019-02-23T02:45:05.180Z,14.35
2019-02-23T02:47:33.986Z,14.93
2019-02-23T02:50:02.852Z,14.50
2019-02-23T02:52:31.606Z,14.33
2019-02-23T02:55:00.534Z,14.80
2019-02-23T02:57:29.388Z,14.13
2019-02-23T02:59:58.334Z,14.55
2019-02-23T03:02:27.110Z,14.10
2019-02-23T03:04:56.185Z,15.20
2019-02-23T03:07:25.071Z,14.70
2019-02-23T03:09:53.927Z,15.20
2019-02-23T03:12:22.813Z,15.35
2019-02-23T03:14:51.625Z,15.32
2019-02-23T03:17:20.693Z,15.35
2019-02-23T03:19:49.784Z,15.53
2019-02-23T03:22:18.885Z,15.78
2019-02-23T03:24:47.648Z,15.53
2019-02-23T03:27:16.769Z,15.53
2019-02-23T03:29:45.552Z,16.12
2019-02-23T03:32:14.518Z,15.23
2019-02-23T03:34:43.348Z,15.15
2019-02-23T03:37:12.601Z,16.02
2019-02-23T03:39:41.361Z,15.93
2019-02-23T03:42:11.670Z,16.00
2019-02-23T03:44:40.437Z,15.85
2019-02-23T03:47:09.910Z,15.70
2019-02-23T03:49:38.675Z,16.00
2019-02-23T03:52:07.465Z,15.10
2019-02-23T03:54:36.538Z,16.17
2019-02-23T03:57:05.322Z,15.45
2019-02-23T03:59:34.506Z,16.40
2019-02-23T04:02:04.007Z,15.60
2019-02-23T04:04:33.127Z,15.75
2019-02-23T04:07:02.430Z,16.00
2019-02-23T04:09:31.197Z,16.32
2019-02-23T04:11:59.975Z,16.70
2019-02-23T04:14:28.822Z,16.80
2019-02-23T04:16:57.972Z,17.02
2019-02-23T04:19:27.160Z,16.10
2019-02-23T04:21:56.658Z,16.30
2019-02-23T04:24:25.444Z,16.73
2019-02-23T04:26:54.527Z,16.77
2019-02-23T04:29:23.335Z,16.80
2019-02-23T04:31:52.110Z,17.23
2019-02-23T04:34:21.007Z,16.87
2019-02-23T04:36:49.783Z,17.27
2019-02-23T04:39:18.873Z,16.82
2019-02-23T04:41:47.780Z,17.35
2019-02-23T04:44:16.862Z,17.87
2019-02-23T04:46:45.721Z,17.27
2019-02-23T04:49:14.499Z,18.23
2019-02-23T04:51:43.361Z,17.62
2019-02-23T04:54:12.225Z,17.00
2019-02-23T04:56:41.033Z,16.40
2019-02-23T04:59:09.822Z,16.30
2019-02-23T05:01:38.601Z,17.80
2019-02-23T05:04:07.437Z,17.05
2019-02-23T05:06:36.472Z,18.12
2019-02-23T05:09:06.158Z,17.70
2019-02-23T05:11:34.961Z,17.85
2019-02-23T05:14:03.774Z,17.80
2019-02-23T05:16:32.960Z,17.90
2019-02-23T05:19:01.752Z,17.50
2019-02-23T05:21:30.626Z,18.80
2019-02-23T05:23:59.713Z,18.87
2019-02-23T05:26:29.056Z,18.80
2019-02-23T05:28:57.879Z,18.70
2019-02-23T05:31:26.658Z,18.82
2019-02-23T05:33:55.812Z,19.82
2019-02-23T05:36:24.978Z,19.98
2019-02-23T05:38:54.615Z,19.62
2019-02-23T05:41:23.683Z,19.82
2019-02-23T05:43:52.709Z,19.57
2019-02-23T05:46:21.485Z,19.77
2019-02-23T05:48:50.972Z,18.90
2019-02-23T05:51:20.167Z,18.90
2019-02-23T05:53:48.960Z,19.27
2019-02-23T05:56:18.170Z,20.57
2019-02-23T05:58:47.160Z,20.90
2019-02-23T06:01:16.259Z,20.15
2019-02-23T06:03:45.806Z,20.80
2019-02-23T06:06:14.675Z,20.70
2019-02-23T06:08:44.437Z,20.88
2019-02-23T06:11:13.563Z,21.35
2019-02-23T06:13:42.631Z,21.00
2019-02-23T06:16:11.735Z,21.40
2019-02-23T06:18:40.801Z,21.12
2019-02-23T06:21:09.916Z,21.65
2019-02-23T06:23:38.695Z,21.65
2019-02-23T06:26:08.033Z,21.82
2019-02-23T06:28:36.979Z,22.00
2019-02-23T06:31:06.018Z,21.87
2019-02-23T06:33:35.089Z,21.93
2019-02-23T06:36:03.961Z,22.27
2019-02-23T06:38:33.101Z,22.25
2019-02-23T06:41:02.171Z,22.05
2019-02-23T06:43:31.255Z,22.52
2019-02-23T06:46:00.446Z,22.65
2019-02-23T06:48:29.286Z,22.77
2019-02-23T06:50:58.072Z,22.90
2019-02-23T06:53:27.202Z,22.62
2019-02-23T06:55:56.073Z,22.65
2019-02-23T06:58:24.848Z,23.42
2019-02-23T07:00:53.812Z,22.02
2019-02-23T07:03:23.269Z,22.93
2019-02-23T07:05:52.718Z,23.20
2019-02-23T07:08:21.836Z,22.93
2019-02-23T07:10:50.646Z,22.87
2019-02-23T07:13:19.532Z,23.02
2019-02-23T07:15:49.113Z,23.60
2019-02-23T07:18:18.093Z,25.77
2019-02-23T07:20:46.871Z,22.75
2019-02-23T07:23:16.092Z,23.38
2019-02-23T07:25:45.484Z,24.37
2019-02-23T07:28:14.337Z,24.40
2019-02-23T07:30:43.881Z,56.68
2019-02-23T07:33:32.078Z,25.62
2019-02-23T07:35:49.611Z,25.02
2019-02-23T07:38:18.758Z,22.13
2019-02-23T07:40:47.833Z,21.80
2019-02-23T07:43:16.730Z,22.40
2019-02-23T07:45:45.901Z,25.25
2019-02-23T07:48:16.172Z,22.20
2019-02-23T07:50:46.569Z,21.97
2019-02-23T07:53:16.221Z,22.75
2019-02-23T07:55:45.111Z,21.45
2019-02-23T07:58:14.237Z,21.62
2019-02-23T08:00:43.025Z,21.42
2019-02-23T08:03:11.894Z,20.90
2019-02-23T08:05:41.439Z,21.68
2019-02-23T08:08:10.229Z,21.33
2019-02-23T08:10:39.109Z,21.40
2019-02-23T08:13:08.546Z,21.27
2019-02-23T08:15:37.489Z,20.82
2019-02-23T08:18:06.325Z,21.50
2019-02-23T08:20:35.433Z,21.80
2019-02-23T08:23:04.685Z,21.02
2019-02-23T08:25:33.532Z,21.27
2019-02-23T08:28:02.343Z,21.02
2019-02-23T08:30:31.134Z,20.57
2019-02-23T08:33:00.357Z,20.77
2019-02-23T08:35:29.136Z,20.48
2019-02-23T08:37:58.017Z,19.27
2019-02-23T08:40:26.798Z,19.12
2019-02-23T08:42:56.455Z,19.10
2019-02-23T08:45:25.930Z,19.00
2019-02-23T08:47:56.396Z,18.92
2019-02-23T08:50:25.354Z,18.87
2019-02-23T08:52:54.201Z,18.87
2019-02-23T08:55:23.047Z,18.37
2019-02-23T08:57:52.010Z,18.40
2019-02-23T09:00:21.617Z,18.30
2019-02-23T09:02:50.647Z,17.80
2019-02-23T09:05:19.591Z,18.60
2019-02-23T09:07:49.111Z,18.30
2019-02-23T09:10:18.014Z,18.60
2019-02-23T09:12:47.398Z,18.42
2019-02-23T09:15:16.800Z,18.75
2019-02-23T09:17:45.708Z,18.80
2019-02-23T09:20:15.272Z,19.52
2019-02-23T09:22:44.995Z,19.03
2019-02-23T09:25:14.116Z,19.35
2019-02-23T09:27:42.900Z,19.93
2019-02-23T09:30:11.731Z,19.25
2019-02-23T09:32:40.794Z,19.52
2019-02-23T09:35:09.848Z,18.80
2019-02-23T09:37:38.776Z,19.63
2019-02-23T09:40:08.802Z,18.70
2019-02-23T09:42:38.033Z,18.02
2019-02-23T09:45:08.908Z,17.60
2019-02-23T09:47:37.858Z,18.42
2019-02-23T09:50:06.845Z,17.27
2019-02-23T09:52:35.633Z,17.73
2019-02-23T09:55:05.387Z,16.57
2019-02-23T09:57:34.483Z,17.02
2019-02-23T10:00:03.561Z,16.87
2019-02-23T10:02:32.787Z,16.30
2019-02-23T10:05:02.163Z,16.45
2019-02-23T10:07:31.040Z,15.83
2019-02-23T10:09:59.866Z,16.25
2019-02-23T10:12:29.149Z,15.88
2019-02-23T10:14:58.894Z,16.32
2019-02-23T10:17:28.401Z,16.40
2019-02-23T10:19:57.846Z,16.85
2019-02-23T10:22:27.069Z,16.50
2019-02-23T10:24:56.152Z,16.23
2019-02-23T10:27:25.169Z,16.73
2019-02-23T10:29:54.449Z,16.05
2019-02-23T10:32:23.512Z,16.17
2019-02-23T10:34:52.303Z,15.75
2019-02-23T10:37:22.352Z,16.12
2019-02-23T10:39:52.767Z,15.55
2019-02-23T10:42:22.264Z,16.23
2019-02-23T10:44:51.274Z,15.58
2019-02-23T10:47:20.282Z,15.93
2019-02-23T10:49:49.161Z,15.72
2019-02-23T10:52:18.659Z,15.53
2019-02-23T10:54:47.655Z,15.32
2019-02-23T10:57:16.838Z,15.85
2019-02-23T10:59:46.584Z,16.00
2019-02-23T11:02:15.749Z,15.63
2019-02-23T11:04:45.261Z,16.15
2019-02-23T11:07:14.224Z,16.10
2019-02-23T11:09:43.673Z,16.12
2019-02-23T11:12:12.977Z,15.75
2019-02-23T11:14:42.353Z,15.90
2019-02-23T11:17:11.688Z,15.15
2019-02-23T11:19:40.825Z,15.15
2019-02-23T11:22:11.493Z,15.35
2019-02-23T11:24:40.603Z,15.55
2019-02-23T11:27:09.626Z,15.53
2019-02-23T11:29:38.799Z,14.90
2019-02-23T11:32:07.743Z,14.23
2019-02-23T11:34:37.065Z,14.45
2019-02-23T11:37:05.843Z,14.68
2019-02-23T11:39:34.714Z,14.35
2019-02-23T11:42:18.530Z,14.93
2019-02-23T11:44:47.670Z,14.23
2019-02-23T11:47:16.748Z,15.85
2019-02-23T11:49:45.970Z,14.58
2019-02-23T11:52:14.857Z,15.23
2019-02-23T11:54:44.311Z,14.60
2019-02-23T11:57:13.761Z,15.10
2019-02-23T11:59:44.526Z,13.90
2019-02-23T12:02:15.928Z,15.00
2019-02-23T12:04:45.157Z,14.38
2019-02-23T12:07:14.033Z,14.13
2019-02-23T12:09:43.207Z,14.45
2019-02-23T12:12:12.396Z,13.75
2019-02-23T12:14:41.661Z,13.72
2019-02-23T12:17:10.448Z,14.33
2019-02-23T12:19:40.027Z,13.70
2019-02-23T12:22:12.308Z,13.25
2019-02-23T12:24:40.670Z,13.43
2019-02-23T12:27:09.772Z,13.22
2019-02-23T12:29:38.740Z,12.73
2019-02-23T12:32:07.929Z,12.58
2019-02-23T12:34:36.941Z,12.47
2019-02-23T12:37:05.743Z,12.83
2019-02-23T12:39:34.876Z,12.90
2019-02-23T12:42:03.782Z,12.63
2019-02-23T12:44:32.577Z,12.63
2019-02-23T12:47:01.707Z,13.38
2019-02-23T12:49:30.502Z,12.73
2019-02-23T12:51:59.887Z,12.40
2019-02-23T12:54:28.910Z,12.60
2019-02-23T12:56:57.741Z,12.43
2019-02-23T12:59:26.933Z,12.65
2019-02-23T13:01:55.720Z,12.55
2019-02-23T13:04:25.158Z,12.18
2019-02-23T13:06:54.092Z,12.30
2019-02-23T13:09:28.765Z,11.93
2019-02-23T13:12:17.490Z,12.03
2019-02-23T13:15:22.463Z,11.88
2019-02-23T13:18:31.676Z,11.25
2019-02-23T13:21:38.374Z,11.65
2019-02-23T13:24:44.344Z,11.55
2019-02-23T13:27:51.314Z,11.80
2019-02-23T13:30:50.468Z,11.18
2019-02-23T13:33:48.780Z,11.53
2019-02-23T13:36:36.501Z,11.15
2019-02-23T13:39:43.576Z,10.88
2019-02-23T13:42:34.096Z,10.75
2019-02-23T13:45:23.988Z,10.93
2019-02-23T13:48:31.287Z,10.65
2019-02-23T13:51:41.027Z,10.80
2019-02-23T13:54:39.308Z,11.08
2019-02-23T13:57:34.497Z,10.18
2019-02-23T14:00:34.747Z,10.67
2019-02-23T14:03:44.062Z,10.35
2019-02-23T14:06:27.365Z,10.48
2019-02-23T14:09:32.732Z,10.28
2019-02-23T14:12:33.964Z,10.20
2019-02-23T14:15:39.977Z,10.93
2019-02-23T14:19:01.301Z,10.38
2019-02-23T14:22:06.956Z,10.28
2019-02-23T14:25:00.708Z,10.32
2019-02-23T14:28:23.776Z,10.38
2019-02-23T14:31:29.656Z,10.18
2019-02-23T14:34:33.772Z,10.20
2019-02-23T14:37:31.391Z,10.95
2019-02-23T14:40:56.583Z,10.05
2019-02-23T14:43:49.466Z,10.40
2019-02-23T14:46:44.065Z,10.30
2019-02-23T14:49:36.829Z,10.43
2019-02-23T14:52:49.226Z,10.63
2019-02-23T14:55:39.914Z,10.53
2019-02-23T14:58:43.272Z,10.70
2019-02-23T15:01:46.273Z,9.80
2019-02-23T15:04:51.220Z,10.40
2019-02-23T15:08:07.308Z,10.80
2019-02-23T15:11:00.275Z,9.95
2019-02-23T15:13:47.148Z,10.43
2019-02-23T15:16:48.836Z,10.53
2019-02-23T15:19:48.635Z,10.78
2019-02-23T15:22:48.662Z,10.75
2019-02-23T15:26:14.485Z,10.43
2019-02-23T15:29:14.986Z,10.55
2019-02-23T15:32:24.273Z,10.23
2019-02-23T15:35:05.294Z,10.70
2019-02-23T15:37:59.910Z,10.37
2019-02-23T15:40:47.541Z,10.43
2019-02-23T15:43:25.892Z,10.72
2019-02-23T15:46:15.179Z,10.40
2019-02-23T15:48:53.566Z,10.03
2019-02-23T15:51:22.699Z,10.45
2019-02-23T15:53:51.830Z,10.65
2019-02-23T15:56:20.748Z,10.25
2019-02-23T15:58:49.757Z,9.75
2019-02-23T16:01:18.681Z,10.38
2019-02-23T16:03:47.436Z,10.90
2019-02-23T16:06:16.332Z,11.07
2019-02-23T16:08:45.237Z,10.70
2019-02-23T16:11:14.948Z,11.48
2019-02-23T16:13:43.702Z,10.90
2019-02-23T16:16:12.745Z,11.20
2019-02-23T16:18:41.512Z,11.20
2019-02-23T16:21:10.357Z,11.35
2019-02-23T16:23:39.476Z,13.10
2019-02-23T16:26:08.675Z,13.62
2019-02-23T16:28:37.485Z,12.73
2019-02-23T16:31:06.363Z,11.75
2019-02-23T16:33:35.185Z,12.50
2019-02-23T16:36:04.438Z,12.53
2019-02-23T16:38:33.207Z,12.10
2019-02-23T16:41:02.320Z,12.45
2019-02-23T16:43:31.180Z,13.48
2019-02-23T16:46:00.302Z,12.60
2019-02-23T16:48:29.088Z,11.60
2019-02-23T16:50:57.858Z,12.55
2019-02-23T16:53:26.633Z,12.70
2019-02-23T16:55:55.573Z,12.73
2019-02-23T16:58:24.341Z,11.55
2019-02-23T17:00:53.118Z,10.60
2019-02-23T17:03:21.924Z,10.55
2019-02-23T17:05:50.705Z,10.40
2019-02-23T17:08:19.756Z,9.80
2019-02-23T17:10:48.606Z,10.93
2019-02-23T17:13:36.869Z,10.25
2019-02-23T17:16:05.657Z,9.90
2019-02-23T17:18:34.440Z,10.25
2019-02-23T17:21:03.289Z,9.95
2019-02-23T17:23:32.167Z,10.08
2019-02-23T17:26:04.477Z,9.98
2019-02-23T17:28:31.770Z,9.88
2019-02-23T17:31:00.551Z,10.43
2019-02-23T17:33:29.377Z,10.88
2019-02-23T17:35:58.293Z,13.48
2019-02-23T17:38:27.340Z,13.45
2019-02-23T17:40:56.162Z,12.05
2019-02-23T17:43:25.370Z,13.78
2019-02-23T17:45:54.502Z,16.60
2019-02-23T17:48:23.624Z,15.83
2019-02-23T17:50:52.925Z,15.38
2019-02-23T17:53:21.704Z,16.00
2019-02-23T17:55:51.020Z,16.00
2019-02-23T17:58:19.793Z,15.90
2019-02-23T18:00:48.585Z,16.23
2019-02-23T18:03:17.678Z,14.87
2019-02-23T18:05:46.509Z,14.50
2019-02-23T18:08:15.800Z,14.13
2019-02-23T18:10:44.641Z,13.60
2019-02-23T18:13:13.692Z,13.70
2019-02-23T18:15:42.761Z,13.30
2019-02-23T18:18:11.532Z,13.43
2019-02-23T18:20:40.303Z,13.55
2019-02-23T18:23:09.194Z,13.45
2019-02-23T18:25:38.228Z,13.22
2019-02-23T18:28:07.258Z,13.10
2019-02-23T18:30:36.082Z,13.03
2019-02-23T18:33:04.870Z,12.43
2019-02-23T18:35:33.876Z,12.82
2019-02-23T18:38:02.661Z,13.20
2019-02-23T18:40:31.665Z,13.05
2019-02-23T18:43:00.517Z,12.85
2019-02-23T18:45:29.381Z,12.63
2019-02-23T18:47:58.261Z,11.78
2019-02-23T18:50:27.024Z,11.65
2019-02-23T18:52:55.824Z,11.43
2019-02-23T18:55:24.665Z,11.68
2019-02-23T18:57:53.765Z,10.93
2019-02-23T19:00:24.572Z,11.78
2019-02-23T19:02:53.227Z,12.00
2019-02-23T19:05:22.089Z,12.87
2019-02-23T19:07:51.118Z,12.30
2019-02-23T19:10:20.248Z,12.35
2019-02-23T19:12:49.174Z,12.40
2019-02-23T19:15:17.987Z,13.25
2019-02-23T19:17:46.863Z,12.70
2019-02-23T19:20:15.948Z,13.55
2019-02-23T19:22:45.070Z,13.53
2019-02-23T19:25:13.848Z,13.30
2019-02-23T19:27:42.616Z,13.53
2019-02-23T19:30:12.059Z,13.48
2019-02-23T19:32:40.908Z,13.78
2019-02-23T19:35:10.008Z,13.30
2019-02-23T19:37:39.289Z,13.72
2019-02-23T19:40:08.741Z,13.33
2019-02-23T19:42:37.581Z,13.53
2019-02-23T19:45:07.285Z,13.72
2019-02-23T19:47:36.093Z,13.30
2019-02-23T19:50:14.129Z,13.70
2019-02-23T19:52:42.944Z,13.75
2019-02-23T19:55:13.009Z,13.98
2019-02-23T19:57:42.115Z,14.45
2019-02-23T20:00:11.229Z,14.20
2019-02-23T20:02:40.630Z,13.58
2019-02-23T20:05:09.627Z,14.35
2019-02-23T20:07:38.911Z,13.20
2019-02-23T20:10:08.618Z,13.95
2019-02-23T20:12:37.420Z,14.20
2019-02-23T20:15:07.005Z,14.58
2019-02-23T20:17:35.899Z,14.47
2019-02-23T20:20:04.902Z,13.70
2019-02-23T20:22:34.032Z,14.30
2019-02-23T20:25:02.893Z,14.28
2019-02-23T20:27:31.871Z,14.55
2019-02-23T20:30:00.720Z,14.83
2019-02-23T20:32:29.662Z,14.98
2019-02-23T20:34:59.293Z,16.10
2019-02-23T20:37:36.556Z,19.48
2019-02-23T20:40:06.115Z,18.20
2019-02-23T20:42:35.076Z,19.30
2019-02-23T20:45:04.476Z,17.45
2019-02-23T20:47:33.370Z,17.87
2019-02-23T20:50:02.671Z,17.10
2019-02-23T20:52:31.891Z,17.45
2019-02-23T20:55:01.416Z,17.90
2019-02-23T20:57:30.215Z,17.00
2019-02-23T20:59:59.593Z,15.18
2019-02-23T21:02:29.385Z,15.63
2019-02-23T21:04:58.519Z,15.00
2019-02-23T21:07:27.289Z,14.10
2019-02-23T21:09:56.181Z,14.15
2019-02-23T21:12:25.234Z,13.90
2019-02-23T21:14:54.029Z,13.20
2019-02-23T21:17:22.811Z,13.00
2019-02-23T21:19:51.646Z,12.50
2019-02-23T21:22:20.441Z,12.58
2019-02-23T21:24:49.595Z,13.10
2019-02-23T21:27:37.712Z,13.38
2019-02-23T21:30:07.149Z,13.22
2019-02-23T21:32:35.921Z,12.82
2019-02-23T21:35:05.036Z,13.50
2019-02-23T21:37:33.808Z,14.05
2019-02-23T21:40:03.014Z,15.55
2019-02-23T21:42:32.165Z,15.00
2019-02-23T21:45:01.204Z,14.38
2019-02-23T21:47:30.073Z,14.05
2019-02-23T21:49:58.846Z,14.40
2019-02-23T21:52:27.670Z,14.20
2019-02-23T21:54:56.808Z,14.20
2019-02-23T21:57:25.574Z,13.70
2019-02-23T21:59:54.342Z,14.10
2019-02-23T22:02:23.437Z,14.50
2019-02-23T22:05:12.603Z,14.93
2019-02-23T22:07:41.739Z,15.00
2019-02-23T22:10:10.589Z,14.55
2019-02-23T22:12:39.411Z,15.15
2019-02-23T22:15:08.453Z,15.63
2019-02-23T22:17:37.253Z,14.90
2019-02-23T22:20:06.290Z,15.10
2019-02-23T22:22:35.999Z,15.30
2019-02-23T22:25:05.461Z,14.78
2019-02-23T22:27:34.397Z,14.85
2019-02-23T22:30:03.196Z,15.55
2019-02-23T22:32:31.993Z,15.10
2019-02-23T22:35:00.775Z,15.10
2019-02-23T22:37:29.841Z,15.17
2019-02-23T22:39:58.637Z,15.03
2019-02-23T22:42:27.612Z,15.15
2019-02-23T22:44:56.742Z,15.68
2019-02-23T22:47:25.519Z,14.87
2019-02-23T22:49:54.537Z,14.78
2019-02-23T22:52:23.317Z,15.48
2019-02-23T22:54:52.096Z,15.32
2019-02-23T22:57:20.886Z,15.48
2019-02-23T22:59:50.011Z,15.32
2019-02-23T23:02:18.988Z,15.75
2019-02-23T23:04:48.317Z,15.60
2019-02-23T23:07:17.351Z,15.53
2019-02-23T23:09:46.144Z,16.23
2019-02-23T23:12:14.950Z,15.63
2019-02-23T23:14:43.748Z,15.55
2019-02-23T23:17:12.857Z,15.72
2019-02-23T23:19:41.647Z,16.05
2019-02-23T23:22:10.835Z,15.80
2019-02-23T23:24:39.762Z,16.20
2019-02-23T23:27:08.592Z,16.52
2019-02-23T23:29:37.826Z,16.07
2019-02-23T23:32:06.605Z,16.77
2019-02-23T23:34:35.382Z,16.57
2019-02-23T23:37:04.689Z,15.83
2019-02-23T23:39:33.471Z,16.10
2019-02-23T23:42:02.617Z,15.15
2019-02-23T23:44:32.072Z,16.37
2019-02-23T23:47:00.918Z,15.18
2019-02-23T23:49:30.401Z,16.20
2019-02-23T23:51:59.216Z,16.13
2019-02-23T23:54:28.233Z,16.60
2019-02-23T23:56:56.992Z,16.00
2019-02-23T23:59:26.006Z,15.95
